Time;durP1;ratioP1;P1;durP2;ratioP2;P2;SDS_P1;SDS_P2;PMS_P1;PMS_P2;Temp;Humidity;BMP_temperature;BMP_pressure;BME280_temperature;BME280_humidity;BME280_pressure;Samples;Min_cycle;Max_cycle;Signal;HPM_P1;HPM_P2
2021/12/12 00:00:42;;;;;;;33.03;13.57;;;5.40;99.90;;;;;;4998726;28;20430;-76
2021/12/12 00:03:20;;;;;;;35.22;13.10;;;5.40;99.90;;;;;;4998961;28;20030;-76
2021/12/12 00:05:55;;;;;;;27.57;12.97;;;5.40;99.90;;;;;;5016226;28;20430;-75
2021/12/12 00:08:23;;;;;;;27.33;12.07;;;5.40;99.90;;;;;;4998727;28;20026;-75
2021/12/12 00:10:56;;;;;;;29.93;12.10;;;5.40;99.90;;;;;;5016041;28;20042;-75
2021/12/12 00:13:27;;;;;;;22.58;8.85;;;5.40;99.90;;;;;;4998800;28;20520;-75
2021/12/12 00:15:52;;;;;;;31.20;12.73;;;5.40;99.90;;;;;;5016426;28;20125;-76
2021/12/12 00:18:19;;;;;;;32.67;13.13;;;5.50;99.90;;;;;;4998364;28;20128;-76
2021/12/12 00:20:46;;;;;;;29.70;12.63;;;5.40;99.90;;;;;;5032688;28;20029;-76
2021/12/12 00:23:12;;;;;;;25.57;12.67;;;5.40;99.90;;;;;;5018168;28;20434;-77
2021/12/12 00:25:48;;;;;;;33.93;12.57;;;5.40;99.90;;;;;;5017927;28;20064;-77
2021/12/12 00:28:19;;;;;;;29.80;12.17;;;5.40;99.90;;;;;;5013773;28;20113;-77
2021/12/12 00:30:47;;;;;;;23.50;10.57;;;5.40;99.90;;;;;;5002688;28;20386;-77
2021/12/12 00:33:13;;;;;;;29.83;12.93;;;5.30;99.90;;;;;;4998331;28;20026;-79
2021/12/12 00:35:40;;;;;;;27.13;11.30;;;5.40;99.90;;;;;;5015423;28;20382;-77
2021/12/12 00:38:12;;;;;;;22.53;11.00;;;5.40;99.90;;;;;;5014265;28;20029;-77
2021/12/12 00:40:43;;;;;;;28.93;11.90;;;5.50;99.90;;;;;;5015062;28;20079;-77
2021/12/12 00:43:34;;;;;;;20.97;10.13;;;5.40;99.90;;;;;;5014267;28;20018;-76
2021/12/12 00:46:04;;;;;;;26.60;10.80;;;5.40;99.90;;;;;;5008410;28;20037;-77
2021/12/12 00:48:30;;;;;;;22.90;10.60;;;5.50;99.90;;;;;;5014118;28;20041;-76
2021/12/12 00:50:58;;;;;;;21.83;8.93;;;5.40;99.90;;;;;;5014114;28;20053;-76
2021/12/12 00:53:25;;;;;;;25.40;10.07;;;5.50;99.90;;;;;;5015407;28;20081;-76
2021/12/12 00:55:53;;;;;;;29.57;10.70;;;5.50;99.90;;;;;;5014243;28;20058;-76
2021/12/12 00:58:18;;;;;;;24.17;9.80;;;5.50;99.90;;;;;;5015324;28;20705;-76
2021/12/12 01:00:59;;;;;;;28.03;9.87;;;5.50;99.90;;;;;;5028604;28;20389;-77
2021/12/12 01:03:37;;;;;;;24.83;9.87;;;5.50;99.90;;;;;;5054866;28;20021;-76
2021/12/12 01:06:06;;;;;;;21.17;9.20;;;5.40;99.90;;;;;;5054632;28;20536;-76
2021/12/12 01:08:33;;;;;;;22.70;8.07;;;5.50;99.90;;;;;;5054693;28;20033;-76
2021/12/12 01:11:07;;;;;;;21.03;8.93;;;5.50;99.90;;;;;;5020226;28;20121;-77
2021/12/12 01:13:33;;;;;;;23.83;8.70;;;5.50;99.90;;;;;;5036688;28;20090;-77
2021/12/12 01:16:07;;;;;;;18.40;8.50;;;5.50;99.90;;;;;;5054435;28;20416;-77
2021/12/12 01:18:37;;;;;;;22.07;7.50;;;5.60;99.90;;;;;;5054324;28;20041;-76
2021/12/12 01:21:16;;;;;;;25.60;8.37;;;5.60;99.90;;;;;;5036813;28;20439;-76
2021/12/12 01:23:56;;;;;;;20.83;7.57;;;5.60;99.90;;;;;;5036592;28;20016;-76
2021/12/12 01:26:24;;;;;;;17.53;8.07;;;5.60;99.90;;;;;;5054445;28;20021;-76
2021/12/12 01:28:53;;;;;;;27.43;7.87;;;5.50;99.90;;;;;;5054393;28;20098;-76
2021/12/12 01:31:25;;;;;;;18.97;6.47;;;5.60;99.90;;;;;;5054305;28;20082;-76
2021/12/12 01:33:58;;;;;;;30.40;8.83;;;5.60;99.90;;;;;;5054266;28;20048;-76
2021/12/12 01:36:43;;;;;;;13.40;5.65;;;5.60;99.90;;;;;;5037441;28;20112;-76
2021/12/12 01:39:10;;;;;;;23.70;7.70;;;5.60;99.90;;;;;;5036329;28;20037;-77
2021/12/12 01:41:48;;;;;;;18.30;7.30;;;5.60;99.90;;;;;;5054208;28;20070;-77
2021/12/12 01:44:20;;;;;;;21.27;7.33;;;5.60;99.90;;;;;;5053993;28;20060;-76
2021/12/12 01:46:52;;;;;;;19.40;7.33;;;5.60;99.90;;;;;;5054007;28;20496;-76
2021/12/12 01:49:23;;;;;;;24.07;6.90;;;5.70;99.90;;;;;;5054241;28;20087;-76
2021/12/12 01:51:49;;;;;;;24.47;8.07;;;5.70;99.90;;;;;;5035677;28;20020;-76
2021/12/12 01:54:25;;;;;;;28.40;7.63;;;5.60;99.90;;;;;;5053751;28;20029;-76
2021/12/12 01:56:55;;;;;;;19.03;7.27;;;5.70;99.90;;;;;;5035927;28;20389;-76
2021/12/12 01:59:26;;;;;;;23.33;7.80;;;5.70;99.90;;;;;;5053809;28;20499;-75
2021/12/12 02:02:04;;;;;;;20.67;7.73;;;5.60;99.90;;;;;;5053671;28;20013;-76
2021/12/12 02:04:35;;;;;;;25.03;7.27;;;5.70;99.90;;;;;;5053824;28;20025;-75
2021/12/12 02:07:02;;;;;;;21.23;7.43;;;5.70;99.90;;;;;;5049109;28;20084;-76
2021/12/12 02:09:29;;;;;;;21.03;6.90;;;5.60;99.90;;;;;;4999628;28;20036;-78
2021/12/12 02:11:57;;;;;;;24.73;8.20;;;5.60;99.90;;;;;;5016371;28;20366;-75
2021/12/12 02:14:26;;;;;;;22.10;7.77;;;5.60;99.90;;;;;;5033716;28;20025;-75
2021/12/12 02:16:58;;;;;;;23.30;7.03;;;5.60;99.90;;;;;;5016150;28;20402;-75
2021/12/12 02:19:42;;;;;;;19.83;7.13;;;5.50;99.90;;;;;;5034037;28;20049;-75
2021/12/12 02:23:21;;;;;;;24.98;7.63;;;5.60;99.90;;;;;;5021728;28;20488;-76
2021/12/12 02:36:13;;;;;;;20.37;7.57;;;5.60;99.90;;;;;;5033607;28;20036;-76
2021/12/12 02:38:40;;;;;;;20.13;7.23;;;5.60;99.90;;;;;;5033214;28;20036;-76
2021/12/12 02:41:11;;;;;;;29.00;8.63;;;5.60;99.90;;;;;;5016063;28;20029;-75
2021/12/12 02:43:45;;;;;;;22.20;8.43;;;5.60;99.90;;;;;;5015773;28;20049;-75
2021/12/12 02:46:14;;;;;;;24.35;7.47;;;5.60;99.90;;;;;;5033436;28;20072;-76
2021/12/12 02:48:43;;;;;;;19.33;7.70;;;5.60;99.90;;;;;;5033349;28;20029;-76
2021/12/12 02:51:13;;;;;;;19.73;7.70;;;5.60;99.90;;;;;;5033303;28;20078;-75
2021/12/12 02:53:47;;;;;;;21.80;9.37;;;5.60;99.90;;;;;;5015779;28;20045;-75
2021/12/12 02:56:17;;;;;;;21.98;8.07;;;5.60;99.90;;;;;;5027238;28;20032;-76
2021/12/12 02:58:43;;;;;;;21.60;7.93;;;5.60;99.90;;;;;;5053402;28;20025;-76
2021/12/12 03:01:34;;;;;;;21.57;7.83;;;5.60;99.90;;;;;;5035244;28;20029;-76
2021/12/12 03:04:00;;;;;;;23.33;7.63;;;5.60;99.90;;;;;;5054918;28;20021;-76
2021/12/12 03:06:31;;;;;;;25.10;8.43;;;5.60;99.90;;;;;;5057469;28;20078;-76
2021/12/12 03:09:07;;;;;;;25.33;7.57;;;5.60;99.90;;;;;;5057157;28;20029;-76
2021/12/12 03:11:32;;;;;;;21.43;8.50;;;5.60;99.90;;;;;;5057389;28;20534;-76
2021/12/12 03:13:59;;;;;;;20.90;7.50;;;5.60;99.90;;;;;;5039371;28;20052;-75
2021/12/12 03:16:25;;;;;;;27.20;8.20;;;5.60;99.90;;;;;;5046329;28;20385;-73
2021/12/12 03:18:51;;;;;;;21.90;8.03;;;5.60;99.90;;;;;;5018740;28;20486;-73
2021/12/12 03:21:30;;;;;;;22.37;8.43;;;5.70;99.90;;;;;;5016818;28;20148;-72
2021/12/12 03:24:09;;;;;;;16.63;7.40;;;5.60;99.90;;;;;;5017586;28;20053;-72
2021/12/12 03:26:36;;;;;;;24.23;9.07;;;5.70;99.90;;;;;;4999719;28;20149;-73
2021/12/12 03:29:04;;;;;;;18.07;7.77;;;5.70;99.90;;;;;;5007626;28;20022;-72
2021/12/12 03:31:34;;;;;;;25.13;8.87;;;5.70;99.90;;;;;;5018946;28;20381;-72
2021/12/12 03:34:00;;;;;;;27.23;8.77;;;5.70;99.90;;;;;;5018939;28;20112;-71
2021/12/12 03:36:27;;;;;;;28.27;8.70;;;5.70;99.90;;;;;;5002866;28;20030;-72
2021/12/12 03:39:06;;;;;;;20.23;7.43;;;5.70;99.90;;;;;;5036810;28;20052;-72
2021/12/12 03:41:34;;;;;;;19.50;7.10;;;5.70;99.90;;;;;;5036689;28;20040;-72
2021/12/12 03:44:06;;;;;;;21.17;8.87;;;5.70;99.90;;;;;;5036466;28;20022;-72
2021/12/12 03:46:33;;;;;;;22.10;8.97;;;5.70;99.90;;;;;;5034375;28;20061;-72
2021/12/12 03:48:58;;;;;;;29.33;9.50;;;5.80;99.90;;;;;;5022545;28;20372;-72
2021/12/12 03:51:28;;;;;;;26.83;9.83;;;5.80;99.90;;;;;;5005681;28;20029;-71
2021/12/12 03:53:54;;;;;;;20.73;8.93;;;5.80;99.90;;;;;;5056463;28;20033;-72
2021/12/12 03:56:20;;;;;;;22.97;8.70;;;5.80;99.90;;;;;;5038438;28;20060;-73
2021/12/12 03:58:47;;;;;;;17.10;7.30;;;5.80;99.90;;;;;;5056362;28;20406;-73
2021/12/12 04:01:19;;;;;;;20.33;8.47;;;5.80;99.90;;;;;;5055958;28;20060;-72
2021/12/12 04:03:46;;;;;;;22.47;7.77;;;5.80;99.90;;;;;;5055942;28;20028;-73
2021/12/12 04:06:16;;;;;;;19.20;8.60;;;5.80;99.90;;;;;;5044888;28;20029;-72
2021/12/12 04:08:45;;;;;;;17.83;8.13;;;5.70;99.90;;;;;;5018452;28;20018;-73
2021/12/12 04:11:24;;;;;;;18.73;8.70;;;5.80;99.90;;;;;;5035600;28;20032;-73
2021/12/12 04:13:52;;;;;;;17.90;7.70;;;6.00;99.90;;;;;;5037925;28;20116;-73
2021/12/12 04:16:18;;;;;;;16.80;8.80;;;5.90;99.90;;;;;;5036953;28;20037;-73
2021/12/12 04:18:44;;;;;;;20.73;9.07;;;5.90;99.90;;;;;;5033440;28;20049;-73
2021/12/12 04:21:12;;;;;;;16.43;7.70;;;5.90;99.90;;;;;;5035691;28;20080;-72
2021/12/12 04:23:38;;;;;;;15.50;7.97;;;5.90;99.90;;;;;;5027593;28;20109;-73
2021/12/12 04:26:16;;;;;;;19.00;8.57;;;5.80;99.90;;;;;;5014688;28;20033;-73
2021/12/12 04:28:42;;;;;;;16.97;8.50;;;5.90;99.90;;;;;;5017031;28;20117;-72
2021/12/12 04:31:08;;;;;;;19.67;8.40;;;5.90;99.90;;;;;;5035358;28;20116;-73
2021/12/12 04:33:33;;;;;;;17.00;7.40;;;5.90;99.90;;;;;;5017952;28;20021;-72
2021/12/12 04:35:59;;;;;;;21.23;9.50;;;5.90;99.90;;;;;;5024408;28;20033;-72
2021/12/12 04:38:25;;;;;;;18.63;8.53;;;5.90;99.90;;;;;;5055336;28;20028;-72
2021/12/12 04:40:51;;;;;;;21.93;9.07;;;5.90;99.90;;;;;;5055679;28;20063;-72
2021/12/12 04:43:17;;;;;;;21.23;9.70;;;5.90;99.90;;;;;;5055572;28;20025;-73
2021/12/12 04:45:51;;;;;;;22.00;10.57;;;6.00;99.90;;;;;;5037682;28;20590;-72
2021/12/12 04:51:41;;;;;;;23.83;9.83;;;6.00;99.90;;;;;;5055363;28;20039;-73
2021/12/12 04:54:30;;;;;;;22.60;9.13;;;6.00;99.90;;;;;;5052803;28;20075;-73
2021/12/12 04:57:18;;;;;;;23.17;9.97;;;6.00;99.90;;;;;;5055341;28;20032;-72
2021/12/12 04:59:48;;;;;;;17.40;9.70;;;6.00;99.90;;;;;;5037375;28;20486;-72
2021/12/12 05:02:37;;;;;;;20.13;9.73;;;6.10;99.90;;;;;;5037101;28;20469;-73
2021/12/12 05:05:02;;;;;;;22.23;10.27;;;6.10;99.90;;;;;;5055097;28;20465;-72
2021/12/12 05:07:44;;;;;;;18.73;10.23;;;6.10;99.90;;;;;;5055156;28;20036;-72
2021/12/12 05:10:15;;;;;;;17.53;9.87;;;6.10;99.90;;;;;;5053595;28;20501;-73
2021/12/12 05:12:43;;;;;;;18.30;9.50;;;6.10;99.90;;;;;;5054663;28;20048;-74
2021/12/12 05:15:41;;;;;;;20.97;10.23;;;6.10;99.90;;;;;;5054790;28;20452;-73
2021/12/12 05:18:22;;;;;;;19.70;11.07;;;6.10;99.90;;;;;;5023955;28;20045;-73
2021/12/12 05:20:55;;;;;;;14.87;9.97;;;6.10;99.90;;;;;;5036855;28;20473;-74
2021/12/12 05:23:24;;;;;;;21.97;10.80;;;6.10;99.90;;;;;;5036845;28;20025;-73
2021/12/12 05:26:07;;;;;;;18.30;9.73;;;6.10;99.90;;;;;;5053038;28;20029;-74
2021/12/12 05:28:37;;;;;;;17.30;10.40;;;6.20;99.90;;;;;;5022775;28;20029;-74
2021/12/12 05:31:06;;;;;;;13.97;9.37;;;6.10;99.90;;;;;;5034559;28;20036;-73
2021/12/12 05:33:32;;;;;;;15.87;9.93;;;6.20;99.90;;;;;;5016327;28;20359;-72
2021/12/12 05:35:59;;;;;;;18.03;10.17;;;6.30;99.90;;;;;;5034763;28;20029;-73
2021/12/12 05:38:27;;;;;;;17.90;9.43;;;6.20;99.90;;;;;;5021183;28;20061;-72
2021/12/12 05:40:54;;;;;;;14.93;9.43;;;6.30;99.90;;;;;;5013920;28;20025;-73
2021/12/12 05:43:20;;;;;;;16.30;10.50;;;6.30;99.90;;;;;;5004384;28;20025;-73
2021/12/12 05:45:47;;;;;;;16.63;10.67;;;6.30;99.90;;;;;;5015965;28;20055;-72
2021/12/12 05:48:14;;;;;;;23.90;11.57;;;6.30;99.90;;;;;;5034136;28;20382;-73
2021/12/12 05:50:43;;;;;;;19.03;11.40;;;6.30;99.90;;;;;;5034260;28;20034;-73
2021/12/12 05:53:09;;;;;;;15.63;9.90;;;6.20;99.90;;;;;;5015402;28;20025;-72
2021/12/12 05:55:37;;;;;;;22.87;11.33;;;6.40;99.90;;;;;;5033982;28;20525;-73
2021/12/12 05:58:06;;;;;;;18.63;11.47;;;6.40;99.90;;;;;;5034281;28;20128;-73
2021/12/12 06:00:36;;;;;;;16.63;10.73;;;6.50;99.90;;;;;;5034787;28;20048;-74
2021/12/12 06:03:06;;;;;;;18.97;10.57;;;6.40;99.90;;;;;;5016253;28;20052;-76
2021/12/12 06:05:32;;;;;;;16.57;11.83;;;6.50;99.90;;;;;;5033821;28;20549;-73
2021/12/12 06:07:58;;;;;;;17.67;10.90;;;6.50;99.90;;;;;;5034053;28;20105;-75
2021/12/12 06:10:25;;;;;;;19.00;10.83;;;6.50;99.90;;;;;;5033657;28;20490;-74
2021/12/12 06:12:51;;;;;;;19.63;11.33;;;6.50;99.90;;;;;;4999736;28;20048;-73
2021/12/12 06:15:19;;;;;;;17.23;11.40;;;6.50;99.90;;;;;;5024054;28;20033;-73
2021/12/12 06:17:48;;;;;;;18.93;10.87;;;6.50;99.90;;;;;;5033203;28;20053;-74
2021/12/12 06:20:15;;;;;;;19.47;11.87;;;6.60;99.90;;;;;;5029443;28;20033;-73
2021/12/12 06:22:41;;;;;;;19.87;11.73;;;6.60;99.90;;;;;;5033559;28;20022;-73
2021/12/12 06:25:08;;;;;;;17.63;11.77;;;6.60;99.90;;;;;;5015524;28;20100;-72
2021/12/12 06:27:35;;;;;;;19.87;12.23;;;6.60;99.90;;;;;;5015794;28;20529;-72
2021/12/12 06:30:03;;;;;;;23.17;12.90;;;6.60;99.90;;;;;;5015878;28;20491;-72
2021/12/12 06:32:29;;;;;;;18.10;12.53;;;6.60;99.90;;;;;;5018522;28;20363;-72
2021/12/12 06:34:56;;;;;;;20.30;12.97;;;6.70;99.90;;;;;;5017687;28;20044;-74
2021/12/12 06:37:23;;;;;;;26.70;14.77;;;6.60;99.90;;;;;;5013983;28;20038;-73
2021/12/12 06:39:49;;;;;;;22.53;13.87;;;6.60;99.90;;;;;;4997412;28;20553;-73
2021/12/12 06:42:16;;;;;;;18.47;12.57;;;6.70;99.90;;;;;;5009295;28;20433;-73
2021/12/12 06:44:43;;;;;;;22.43;13.37;;;6.70;99.90;;;;;;5010572;28;20018;-73
2021/12/12 06:47:12;;;;;;;23.23;14.13;;;6.80;99.90;;;;;;5033153;28;20080;-73
2021/12/12 06:49:38;;;;;;;24.57;12.90;;;6.70;99.90;;;;;;5049461;28;20498;-73
2021/12/12 06:52:08;;;;;;;26.40;13.47;;;6.70;99.90;;;;;;5053395;28;20111;-75
2021/12/12 06:54:35;;;;;;;20.73;12.47;;;6.70;99.90;;;;;;5025773;28;20117;-74
2021/12/12 06:57:05;;;;;;;24.73;13.03;;;6.70;99.90;;;;;;5015398;28;20361;-73
2021/12/12 06:59:34;;;;;;;20.90;13.40;;;6.70;99.90;;;;;;5033983;28;20059;-74
2021/12/12 07:02:00;;;;;;;22.43;12.60;;;6.80;99.90;;;;;;5014126;28;20025;-73
2021/12/12 07:04:28;;;;;;;26.77;13.97;;;6.80;99.90;;;;;;4999096;28;20034;-73
2021/12/12 07:06:58;;;;;;;22.93;13.10;;;6.80;99.90;;;;;;5032887;28;20038;-74
2021/12/12 07:09:27;;;;;;;23.47;13.97;;;6.80;99.90;;;;;;5032738;28;20044;-74
2021/12/12 07:11:54;;;;;;;25.87;13.87;;;6.90;99.90;;;;;;4998863;28;20112;-73
2021/12/12 07:14:20;;;;;;;25.83;13.27;;;6.80;99.90;;;;;;4998379;28;20038;-73
2021/12/12 07:16:46;;;;;;;21.90;13.60;;;6.90;99.90;;;;;;5015415;28;20026;-74
2021/12/12 07:19:16;;;;;;;25.60;13.93;;;6.80;99.90;;;;;;5048051;28;20075;-74
2021/12/12 07:21:43;;;;;;;25.53;13.87;;;6.90;99.90;;;;;;5021562;28;20037;-74
2021/12/12 07:24:10;;;;;;;24.97;13.53;;;6.90;99.90;;;;;;5033119;28;20037;-74
2021/12/12 07:26:35;;;;;;;22.27;12.90;;;6.90;99.90;;;;;;5015745;28;20021;-74
2021/12/12 07:29:02;;;;;;;19.73;11.93;;;6.90;99.90;;;;;;5037942;28;20036;-75
2021/12/12 07:31:33;;;;;;;21.90;12.83;;;7.10;99.90;;;;;;5034569;28;20112;-74
2021/12/12 07:34:02;;;;;;;27.67;13.33;;;7.00;99.90;;;;;;5052995;28;20029;-74
2021/12/12 07:36:32;;;;;;;25.97;14.90;;;7.00;99.90;;;;;;5053087;28;20136;-74
2021/12/12 07:39:01;;;;;;;22.93;13.67;;;7.00;99.90;;;;;;5032182;28;20707;-73
2021/12/12 07:41:29;;;;;;;27.17;13.97;;;7.00;99.90;;;;;;5051413;28;20596;-76
2021/12/12 07:43:57;;;;;;;28.53;14.97;;;7.00;99.90;;;;;;5052589;28;20108;-76
2021/12/12 07:46:25;;;;;;;23.40;13.73;;;7.10;99.90;;;;;;5018889;28;20036;-76
2021/12/12 07:48:52;;;;;;;25.37;14.07;;;7.10;99.90;;;;;;5052332;28;20474;-75
2021/12/12 07:51:19;;;;;;;24.93;14.60;;;7.10;99.90;;;;;;5054289;28;20025;-77
2021/12/12 07:53:46;;;;;;;28.13;15.70;;;7.10;99.90;;;;;;5055908;28;20021;-76
2021/12/12 07:56:12;;;;;;;29.47;14.30;;;7.10;99.90;;;;;;5056490;28;20079;-76
2021/12/12 07:58:38;;;;;;;28.17;14.27;;;7.10;99.90;;;;;;5021964;28;20554;-76
2021/12/12 08:01:05;;;;;;;32.10;14.90;;;7.20;99.90;;;;;;5021889;28;20021;-76
2021/12/12 08:03:33;;;;;;;24.07;13.27;;;7.20;99.90;;;;;;5022341;28;20226;-76
2021/12/12 08:06:00;;;;;;;31.33;16.73;;;7.30;99.90;;;;;;5038123;28;20100;-76
2021/12/12 08:08:27;;;;;;;33.37;15.70;;;7.20;99.90;;;;;;5038157;28;20025;-77
2021/12/12 08:10:53;;;;;;;28.87;15.30;;;7.30;99.90;;;;;;5038338;28;20500;-77
2021/12/12 08:13:20;;;;;;;26.53;14.47;;;7.30;99.90;;;;;;5037982;28;20021;-77
2021/12/12 08:15:46;;;;;;;31.37;16.07;;;7.30;99.90;;;;;;5037969;28;20031;-77
2021/12/12 08:18:15;;;;;;;30.73;16.30;;;7.40;99.90;;;;;;5037706;28;20037;-77
2021/12/12 08:20:46;;;;;;;28.17;15.37;;;7.50;99.90;;;;;;5055864;28;20029;-77
2021/12/12 08:23:14;;;;;;;32.63;16.23;;;7.40;99.90;;;;;;5055589;28;20096;-77
2021/12/12 08:25:43;;;;;;;29.57;15.60;;;7.50;99.90;;;;;;5037743;28;20476;-77
2021/12/12 08:28:09;;;;;;;34.40;16.17;;;7.50;99.90;;;;;;5037889;28;20071;-77
2021/12/12 08:30:36;;;;;;;32.70;16.37;;;7.50;99.90;;;;;;5037596;28;20488;-76
2021/12/12 08:33:05;;;;;;;36.57;17.47;;;7.50;99.90;;;;;;5021331;28;20124;-77
2021/12/12 08:35:31;;;;;;;31.67;16.77;;;7.60;99.90;;;;;;5037557;28;20021;-77
2021/12/12 08:38:01;;;;;;;36.67;17.37;;;7.60;99.90;;;;;;5037552;28;20058;-77
2021/12/12 08:40:30;;;;;;;35.87;16.90;;;7.60;99.90;;;;;;5031242;28;20037;-75
2021/12/12 08:42:57;;;;;;;36.93;17.60;;;7.60;99.90;;;;;;5035080;28;20477;-76
2021/12/12 08:45:32;;;;;;;27.93;16.07;;;7.70;99.90;;;;;;5001162;28;20045;-76
2021/12/12 08:48:00;;;;;;;36.53;18.53;;;7.70;99.90;;;;;;5017253;28;20362;-76
2021/12/12 08:50:30;;;;;;;40.10;18.10;;;7.70;99.90;;;;;;5017305;28;20481;-76
2021/12/12 08:52:57;;;;;;;36.73;17.53;;;7.70;99.90;;;;;;5017231;28;20029;-76
2021/12/12 08:55:32;;;;;;;43.57;19.03;;;7.70;99.90;;;;;;5034964;28;20029;-76
2021/12/12 08:58:14;;;;;;;38.60;18.27;;;7.80;99.90;;;;;;5017175;28;20030;-76
2021/12/12 09:00:45;;;;;;;32.77;17.80;;;7.80;99.90;;;;;;5034692;28;20030;-76
2021/12/12 09:03:17;;;;;;;42.27;20.77;;;7.80;99.90;;;;;;5016619;28;20029;-75
2021/12/12 09:05:43;;;;;;;39.83;19.13;;;7.80;99.90;;;;;;5034763;28;20413;-76
2021/12/12 09:08:16;;;;;;;39.00;18.53;;;7.80;99.90;;;;;;5016934;28;20036;-75
2021/12/12 09:10:56;;;;;;;34.60;18.33;;;7.80;99.90;;;;;;5015025;28;20042;-76
2021/12/12 09:13:26;;;;;;;36.50;19.37;;;7.80;99.90;;;;;;5013530;28;20017;-76
2021/12/12 09:15:58;;;;;;;30.17;17.83;;;7.90;99.90;;;;;;4997517;28;20080;-76
2021/12/12 09:18:39;;;;;;;32.60;17.93;;;7.90;99.90;;;;;;4997334;28;20061;-76
2021/12/12 09:21:10;;;;;;;32.33;17.63;;;8.00;99.90;;;;;;5014973;28;20550;-76
2021/12/12 09:24:18;;;;;;;36.47;18.63;;;8.00;99.90;;;;;;4997138;28;20030;-75
2021/12/12 09:26:50;;;;;;;35.77;18.20;;;8.00;99.90;;;;;;4997063;28;20105;-76
2021/12/12 09:29:28;;;;;;;32.10;17.13;;;8.00;99.90;;;;;;5015013;28;20519;-76
2021/12/12 09:32:30;;;;;;;38.40;19.93;;;8.00;99.90;;;;;;4997060;28;20022;-75
2021/12/12 09:35:02;;;;;;;39.47;19.53;;;8.10;99.90;;;;;;4976609;28;20084;-76
2021/12/12 09:37:41;;;;;;;35.00;17.50;;;8.10;99.90;;;;;;5014985;28;20026;-77
2021/12/12 09:40:29;;;;;;;39.93;19.50;;;8.00;99.90;;;;;;4997196;28;20375;-77
2021/12/12 09:43:17;;;;;;;36.70;18.80;;;8.10;99.90;;;;;;4996828;28;20556;-76
2021/12/12 09:45:49;;;;;;;34.37;18.03;;;8.20;99.90;;;;;;4996633;28;20030;-77
2021/12/12 09:51:33;;;;;;;44.43;20.73;;;8.20;99.90;;;;;;5014341;28;20084;-76
2021/12/12 09:54:04;;;;;;;42.07;19.50;;;8.20;99.90;;;;;;4997009;28;20107;-77
2021/12/12 09:56:51;;;;;;;42.03;19.63;;;8.30;99.90;;;;;;5015134;28;20025;-77
2021/12/12 09:59:43;;;;;;;36.67;18.50;;;8.30;99.90;;;;;;4996954;28;20030;-77
2021/12/12 10:02:31;;;;;;;42.33;20.17;;;8.30;99.90;;;;;;4996336;28;20049;-76
2021/12/12 10:05:10;;;;;;;39.83;20.10;;;8.30;99.90;;;;;;4996607;28;20509;-77
2021/12/12 10:07:50;;;;;;;36.63;20.00;;;8.30;99.90;;;;;;4996560;28;20466;-77
2021/12/12 10:10:26;;;;;;;36.30;19.13;;;8.30;99.90;;;;;;4996380;28;20022;-77
2021/12/12 10:13:17;;;;;;;40.10;20.47;;;8.40;99.90;;;;;;5013429;28;20421;-77
2021/12/12 10:15:51;;;;;;;34.07;18.57;;;8.40;99.90;;;;;;5013903;28;20030;-77
2021/12/12 10:18:38;;;;;;;36.42;19.23;;;8.50;99.90;;;;;;5013530;28;20108;-77
2021/12/12 10:21:19;;;;;;;40.07;20.37;;;8.50;99.90;;;;;;4996277;28;20481;-78
2021/12/12 10:24:07;;;;;;;33.40;19.13;;;8.40;99.90;;;;;;5013739;28;20099;-75
2021/12/12 10:26:44;;;;;;;32.90;18.63;;;8.50;99.90;;;;;;4996308;28;20022;-77
2021/12/12 10:29:20;;;;;;;34.80;17.40;;;8.50;99.90;;;;;;4996295;28;20018;-76
2021/12/12 10:32:09;;;;;;;28.23;16.53;;;8.60;99.90;;;;;;4996080;28;20021;-75
2021/12/12 10:34:48;;;;;;;24.63;15.80;;;8.60;99.90;;;;;;4996189;28;20105;-75
2021/12/12 10:37:26;;;;;;;24.67;15.00;;;8.70;99.90;;;;;;5013673;28;20545;-76
2021/12/12 10:40:15;;;;;;;28.67;14.47;;;8.60;99.90;;;;;;5013603;28;20037;-75
2021/12/12 10:42:52;;;;;;;25.20;14.63;;;8.70;99.90;;;;;;4995985;28;20025;-75
2021/12/12 10:45:21;;;;;;;24.67;14.47;;;8.70;99.90;;;;;;4996382;28;20413;-77
2021/12/12 10:47:54;;;;;;;27.23;15.20;;;8.70;99.90;;;;;;4995906;28;20024;-76
2021/12/12 10:50:31;;;;;;;24.27;14.60;;;8.80;99.90;;;;;;4996050;28;20034;-77
2021/12/12 10:53:09;;;;;;;28.63;15.00;;;8.80;99.90;;;;;;5013574;28;20037;-76
2021/12/12 10:55:45;;;;;;;25.27;14.40;;;8.90;99.90;;;;;;5013638;28;20026;-77
2021/12/12 10:58:32;;;;;;;25.33;14.73;;;8.80;99.90;;;;;;4995996;28;20076;-77
2021/12/12 11:01:05;;;;;;;30.03;15.97;;;8.80;99.90;;;;;;4995907;28;20026;-76
2021/12/12 11:03:51;;;;;;;24.20;14.20;;;8.80;99.90;;;;;;5013365;28;20079;-76
2021/12/12 11:06:51;;;;;;;25.27;15.10;;;8.80;99.90;;;;;;4995910;28;20061;-75
2021/12/12 11:09:30;;;;;;;25.43;15.63;;;8.90;99.90;;;;;;4983163;28;20109;-77
2021/12/12 11:12:03;;;;;;;27.30;16.20;;;8.80;99.90;;;;;;4995844;28;20489;-77
2021/12/12 11:14:34;;;;;;;27.13;16.13;;;8.90;99.90;;;;;;4995860;28;20119;-77
2021/12/12 11:17:19;;;;;;;28.57;16.03;;;8.90;99.90;;;;;;5013172;28;20033;-78
2021/12/12 11:19:51;;;;;;;28.67;15.37;;;8.90;99.90;;;;;;5013143;28;20049;-78
2021/12/12 11:22:28;;;;;;;31.87;16.03;;;8.90;99.90;;;;;;4995925;28;20415;-78
2021/12/12 11:25:00;;;;;;;24.87;15.57;;;8.90;99.90;;;;;;5014428;28;20436;-78
2021/12/12 11:28:00;;;;;;;24.07;15.10;;;8.90;99.90;;;;;;4999333;28;20014;-79
2021/12/12 11:30:38;;;;;;;25.47;14.47;;;8.90;99.90;;;;;;4999108;28;20113;-78
2021/12/12 11:33:07;;;;;;;23.77;14.03;;;8.90;99.90;;;;;;5017089;28;20033;-79
2021/12/12 11:35:38;;;;;;;26.00;14.87;;;9.00;99.90;;;;;;5016640;28;20026;-77
2021/12/12 11:38:24;;;;;;;24.67;14.90;;;9.00;99.90;;;;;;4999160;28;20030;-78
2021/12/12 11:41:00;;;;;;;31.07;15.90;;;9.00;99.90;;;;;;4998521;28;20030;-77
2021/12/12 11:43:38;;;;;;;29.40;16.73;;;9.00;99.90;;;;;;4999424;28;20025;-77
2021/12/12 11:46:14;;;;;;;25.23;14.20;;;9.00;99.90;;;;;;4999036;28;20099;-77
2021/12/12 11:48:53;;;;;;;23.50;14.57;;;9.00;99.90;;;;;;4999073;28;20464;-77
2021/12/12 11:51:55;;;;;;;22.03;13.57;;;9.00;99.90;;;;;;5016418;28;20030;-77
2021/12/12 11:54:54;;;;;;;24.60;14.13;;;9.10;99.90;;;;;;5013381;28;20042;-78
2021/12/12 11:57:28;;;;;;;24.03;14.30;;;9.10;99.90;;;;;;4998977;28;20025;-77
2021/12/12 11:59:59;;;;;;;;;;;9.10;99.90;;;;;;4999196;28;20033;-77
2021/12/12 12:02:52;;;;;;;25.30;14.53;;;9.20;99.90;;;;;;4999068;28;19941;-75
2021/12/12 12:05:56;;;;;;;25.03;12.80;;;9.20;99.90;;;;;;5013536;28;20030;-77
2021/12/12 12:08:38;;;;;;;24.27;13.60;;;9.20;99.90;;;;;;5016232;28;20045;-79
2021/12/12 12:11:35;;;;;;;27.83;15.03;;;9.20;99.90;;;;;;4998833;28;20121;-75
2021/12/12 12:14:18;;;;;;;25.17;14.67;;;9.20;99.90;;;;;;5015918;28;20034;-76
2021/12/12 12:16:59;;;;;;;24.80;14.50;;;9.20;99.90;;;;;;4998819;28;20519;-77
2021/12/12 12:19:53;;;;;;;23.53;14.30;;;9.30;99.90;;;;;;4998317;28;20053;-76
2021/12/12 12:22:45;;;;;;;25.63;14.77;;;9.30;99.90;;;;;;5016306;28;20057;-77
2021/12/12 12:25:15;;;;;;;22.33;13.03;;;9.30;99.90;;;;;;4998372;28;20092;-77
2021/12/12 12:27:51;;;;;;;23.57;14.30;;;9.30;99.90;;;;;;5015898;28;20494;-77
2021/12/12 12:30:35;;;;;;;26.30;15.27;;;9.30;99.90;;;;;;4998255;28;20455;-77
2021/12/12 12:33:13;;;;;;;23.85;14.98;;;9.30;99.90;;;;;;4998327;28;20030;-78
2021/12/12 12:36:17;;;;;;;27.37;16.83;;;9.40;99.90;;;;;;5015769;28;20077;-77
2021/12/12 12:39:21;;;;;;;26.40;16.13;;;9.40;99.90;;;;;;5015666;28;20386;-76
2021/12/12 12:42:28;;;;;;;34.40;18.13;;;9.40;99.90;;;;;;4984810;28;20338;-76
2021/12/12 12:45:12;;;;;;;26.37;16.77;;;9.40;99.90;;;;;;4997778;28;20037;-76
2021/12/12 12:47:40;;;;;;;28.38;18.40;;;9.40;99.90;;;;;;5015582;28;20022;-76
2021/12/12 12:50:43;;;;;;;29.47;17.87;;;9.50;99.90;;;;;;4997865;28;20394;-76
2021/12/12 12:53:46;;;;;;;27.30;16.70;;;9.50;99.90;;;;;;4997840;28;20036;-76
2021/12/12 12:56:42;;;;;;;32.03;18.90;;;9.50;99.90;;;;;;5015391;28;20491;-76
2021/12/12 12:59:36;;;;;;;33.43;18.67;;;9.50;99.90;;;;;;4997453;28;20030;-76
2021/12/12 13:02:16;;;;;;;29.63;18.05;;;9.50;99.90;;;;;;4997589;28;20018;-76
2021/12/12 13:04:58;;;;;;;26.13;16.53;;;9.50;99.90;;;;;;4997868;28;20489;-75
2021/12/12 13:07:42;;;;;;;31.83;20.67;;;9.50;99.90;;;;;;5015147;28;20398;-76
2021/12/12 13:10:13;;;;;;;;;;;9.60;99.90;;;;;;5015514;28;20037;-76
2021/12/12 13:12:50;;;;;;;35.87;18.93;;;9.60;99.90;;;;;;5016089;28;20285;-76
2021/12/12 13:15:35;;;;;;;28.07;17.03;;;9.60;99.90;;;;;;5014972;28;20076;-76
2021/12/12 13:18:06;;;;;;;;;;;9.60;99.90;;;;;;4997648;28;20030;-76
2021/12/12 13:20:35;;;;;;;30.93;18.87;;;9.50;99.90;;;;;;4997494;28;19937;-76
2021/12/12 13:23:40;;;;;;;28.13;16.97;;;9.60;99.90;;;;;;4997454;28;20022;-76
2021/12/12 13:26:09;;;;;;;;;;;9.60;99.90;;;;;;4997525;28;20022;-75
2021/12/12 13:28:52;;;;;;;27.93;17.50;;;9.60;99.90;;;;;;4997261;28;20259;-77
2021/12/12 13:31:36;;;;;;;25.90;17.37;;;9.60;99.90;;;;;;4997129;28;20025;-75